Time;durP1;ratioP1;P1;durP2;ratioP2;P2;SDS_P1;SDS_P2;PMS_P1;PMS_P2;Temp;Humidity;BMP_temperature;BMP_pressure;BME280_temperature;BME280_humidity;BME280_pressure;Samples;Min_cycle;Max_cycle;Signal;HPM_P1;HPM_P2
2022/06/06 00:02:24;;;;;;;70.78;40.60;;;15.20;99.90;;;;;;5029445;28;20439;-72
2022/06/06 00:04:49;;;;;;;64.32;38.65;;;15.10;99.90;;;;;;5029805;28;20045;-72
2022/06/06 00:07:15;;;;;;;63.58;38.40;;;15.30;99.90;;;;;;5029456;28;20029;-72
2022/06/06 00:09:40;;;;;;;59.45;36.55;;;15.20;99.90;;;;;;5029488;28;20029;-72
2022/06/06 00:12:07;;;;;;;56.30;37.08;;;15.10;99.90;;;;;;5028805;28;20033;-72
2022/06/06 00:14:32;;;;;;;62.53;35.33;;;15.20;99.90;;;;;;5029709;28;20513;-72
2022/06/06 00:16:58;;;;;;;51.75;31.20;;;15.10;99.90;;;;;;5029363;28;20112;-72
2022/06/06 00:19:24;;;;;;;46.85;28.08;;;14.80;99.90;;;;;;5029555;28;20493;-72
2022/06/06 00:21:50;;;;;;;51.50;30.70;;;15.20;99.90;;;;;;5029410;28;20466;-72
2022/06/06 00:24:17;;;;;;;50.85;31.45;;;15.00;99.90;;;;;;5027401;28;20034;-72
2022/06/06 00:26:42;;;;;;;49.63;32.38;;;15.10;99.90;;;;;;5021530;28;20026;-72
2022/06/06 00:29:09;;;;;;;44.75;27.63;;;15.10;99.90;;;;;;5020761;28;20047;-72
2022/06/06 00:37:07;;;;;;;41.25;23.45;;;14.90;99.90;;;;;;5023046;28;20400;-72
2022/06/06 00:39:33;;;;;;;41.22;25.92;;;14.80;99.90;;;;;;5023594;28;20090;-72
2022/06/06 00:41:58;;;;;;;44.38;26.15;;;14.80;99.90;;;;;;5028799;28;20112;-72
2022/06/06 00:44:30;;;;;;;39.88;23.75;;;14.70;99.90;;;;;;5029153;28;20033;-72
2022/06/06 00:47:17;;;;;;;39.58;24.15;;;15.00;99.90;;;;;;5028758;28;20052;-72
2022/06/06 00:49:53;;;;;;;39.45;23.92;;;15.00;99.90;;;;;;5027275;28;20505;-72
2022/06/06 00:52:24;;;;;;;39.90;23.58;;;14.90;99.90;;;;;;5028222;28;20026;-73
2022/06/06 00:54:53;;;;;;;41.13;23.73;;;14.90;99.90;;;;;;5028234;28;20459;-72
2022/06/06 00:57:22;;;;;;;46.13;25.58;;;14.90;99.90;;;;;;5028768;28;20538;-72
2022/06/06 00:59:49;;;;;;;40.50;22.85;;;14.80;99.90;;;;;;5028772;28;20052;-73
2022/06/06 01:02:16;;;;;;;39.13;21.92;;;14.80;99.90;;;;;;5029022;28;20018;-72
2022/06/06 01:04:42;;;;;;;40.40;23.42;;;14.50;99.90;;;;;;5029066;28;20053;-72
2022/06/06 01:07:10;;;;;;;45.88;24.90;;;15.20;99.90;;;;;;5028370;28;20130;-72
2022/06/06 01:09:37;;;;;;;44.28;24.67;;;14.60;99.90;;;;;;5029248;28;20239;-73
2022/06/06 01:12:08;;;;;;;41.00;23.27;;;15.10;99.90;;;;;;5028551;28;20036;-72
2022/06/06 01:14:42;;;;;;;39.33;23.10;;;15.00;99.90;;;;;;5029235;28;20025;-72
2022/06/06 01:17:17;;;;;;;36.78;22.00;;;15.20;99.90;;;;;;5028587;28;20048;-73
2022/06/06 01:19:55;;;;;;;35.70;21.05;;;15.10;99.90;;;;;;5029304;28;20022;-72
2022/06/06 01:22:58;;;;;;;33.10;20.75;;;15.00;99.90;;;;;;5028403;28;20106;-72
2022/06/06 01:25:54;;;;;;;35.35;20.48;;;15.00;99.90;;;;;;5009119;28;20138;-73
2022/06/06 01:28:31;;;;;;;34.55;20.77;;;14.90;99.90;;;;;;5009090;28;20033;-73
2022/06/06 01:31:00;;;;;;;38.42;20.75;;;15.00;99.90;;;;;;5009213;28;20156;-73
2022/06/06 01:33:25;;;;;;;31.95;20.15;;;15.00;99.90;;;;;;5009428;28;20018;-73
2022/06/06 01:35:51;;;;;;;33.40;20.95;;;14.90;99.90;;;;;;5008941;28;20070;-73
2022/06/06 01:38:21;;;;;;;41.00;22.15;;;14.90;99.90;;;;;;5018723;28;20111;-73
2022/06/06 01:40:54;;;;;;;29.55;18.35;;;15.00;99.90;;;;;;5028702;28;20060;-73
2022/06/06 01:43:26;;;;;;;31.77;18.52;;;15.10;99.90;;;;;;5027250;28;20030;-73
2022/06/06 01:45:58;;;;;;;34.08;20.42;;;14.90;99.90;;;;;;5028669;28;20488;-73
2022/06/06 01:48:29;;;;;;;34.67;20.83;;;14.80;99.90;;;;;;5027324;28;20437;-73
2022/06/06 01:50:55;;;;;;;32.75;19.75;;;14.90;99.90;;;;;;5031018;28;20022;-73
2022/06/06 01:53:24;;;;;;;37.10;20.08;;;14.90;99.90;;;;;;5029331;28;20338;-73
2022/06/06 01:55:52;;;;;;;29.50;18.90;;;15.00;99.90;;;;;;5012738;28;20029;-73
2022/06/06 01:58:24;;;;;;;30.55;18.08;;;15.00;99.90;;;;;;5012576;28;20041;-73
2022/06/06 02:00:49;;;;;;;34.53;19.50;;;14.70;99.90;;;;;;5012466;28;20030;-73
2022/06/06 02:03:16;;;;;;;34.17;20.42;;;15.00;99.90;;;;;;5012334;28;20046;-73
2022/06/06 02:05:41;;;;;;;34.80;20.67;;;14.90;99.90;;;;;;5013404;28;20022;-74
2022/06/06 02:08:08;;;;;;;42.78;21.85;;;15.00;99.90;;;;;;5012367;28;20040;-73
2022/06/06 02:10:35;;;;;;;39.15;20.85;;;15.00;99.90;;;;;;5012643;28;20041;-73
2022/06/06 02:13:00;;;;;;;36.38;21.23;;;15.00;99.90;;;;;;5012162;28;20057;-74
2022/06/06 02:15:27;;;;;;;41.08;22.60;;;15.20;99.90;;;;;;5012500;28;20103;-73
2022/06/06 02:17:53;;;;;;;44.05;25.90;;;14.90;99.90;;;;;;5012201;28;20045;-73
2022/06/06 02:20:22;;;;;;;42.80;25.70;;;15.00;99.90;;;;;;5011864;28;20629;-73
2022/06/06 02:22:48;;;;;;;40.00;23.75;;;15.80;99.90;;;;;;5012834;28;20026;-73
2022/06/06 02:25:15;;;;;;;43.10;25.90;;;15.00;99.90;;;;;;5031660;28;20029;-73
2022/06/06 02:27:41;;;;;;;46.80;25.50;;;15.00;99.90;;;;;;5032252;28;20029;-74
2022/06/06 02:30:11;;;;;;;47.88;27.23;;;15.00;99.90;;;;;;5031458;28;20017;-73
2022/06/06 02:32:37;;;;;;;52.53;26.45;;;15.20;99.90;;;;;;5032123;28;20101;-73
2022/06/06 02:35:03;;;;;;;54.38;29.60;;;14.70;99.90;;;;;;5031097;28;20052;-73
2022/06/06 02:37:28;;;;;;;51.60;27.17;;;15.10;99.90;;;;;;5031895;28;20029;-74
2022/06/06 02:39:54;;;;;;;44.40;26.40;;;15.00;99.90;;;;;;5031709;28;20041;-73
2022/06/06 02:42:20;;;;;;;46.97;26.48;;;15.00;99.90;;;;;;5031645;28;20482;-73
2022/06/06 02:44:46;;;;;;;49.85;27.75;;;16.10;99.90;;;;;;5030222;28;20057;-73
2022/06/06 02:47:12;;;;;;;46.83;27.77;;;15.00;99.90;;;;;;5031619;28;20057;-73
2022/06/06 02:49:38;;;;;;;47.65;27.52;;;15.00;99.90;;;;;;5031270;28;20128;-73
2022/06/06 02:52:04;;;;;;;48.65;26.25;;;15.10;99.90;;;;;;5030560;28;20518;-73
2022/06/06 02:54:30;;;;;;;50.90;26.63;;;15.10;99.90;;;;;;5017876;28;20037;-73
2022/06/06 02:56:56;;;;;;;48.72;26.35;;;15.10;99.90;;;;;;5011460;28;20446;-74
2022/06/06 02:59:23;;;;;;;52.63;27.75;;;15.30;99.90;;;;;;5011634;28;20149;-73
2022/06/06 03:01:49;;;;;;;43.30;25.10;;;15.20;99.90;;;;;;5010700;28;20026;-73
2022/06/06 03:04:15;;;;;;;48.03;26.85;;;16.50;99.90;;;;;;5010948;28;20129;-73
2022/06/06 03:07:22;;;;;;;49.58;26.85;;;15.10;99.90;;;;;;5011812;28;20247;-73
2022/06/06 03:10:12;;;;;;;54.72;28.30;;;15.20;99.90;;;;;;5009545;28;20464;-74
2022/06/06 03:13:00;;;;;;;51.25;27.52;;;15.20;99.90;;;;;;5009278;28;20034;-73
2022/06/06 03:22:17;;;;;;;47.38;25.58;;;15.20;99.90;;;;;;5006572;28;20069;-73
2022/06/06 03:25:09;;;;;;;49.25;27.00;;;15.10;99.90;;;;;;5006740;28;20029;-73
2022/06/06 03:27:40;;;;;;;50.17;28.75;;;15.10;99.90;;;;;;5008730;28;20431;-73
2022/06/06 03:30:15;;;;;;;45.33;25.55;;;15.40;99.90;;;;;;5008569;28;20114;-73
2022/06/06 03:33:01;;;;;;;49.78;28.65;;;15.00;99.90;;;;;;5008495;28;20030;-73
2022/06/06 03:35:46;;;;;;;43.67;24.45;;;15.10;99.90;;;;;;4998673;28;20501;-73
2022/06/06 03:38:42;;;;;;;49.80;25.17;;;15.20;99.90;;;;;;4992164;28;20521;-73
2022/06/06 03:41:24;;;;;;;45.47;23.20;;;15.20;99.90;;;;;;5008134;28;20033;-73
2022/06/06 03:44:03;;;;;;;41.97;23.25;;;15.30;99.90;;;;;;5008466;28;20418;-73
2022/06/06 03:46:51;;;;;;;43.38;24.33;;;15.10;99.90;;;;;;5008235;28;20566;-73
2022/06/06 03:49:45;;;;;;;37.35;21.23;;;15.20;99.90;;;;;;5007945;28;20041;-73
2022/06/06 03:52:19;;;;;;;;;;;15.10;99.90;;;;;;5008871;28;20309;-73
2022/06/06 03:55:22;;;;;;;40.10;21.67;;;15.20;99.90;;;;;;5009844;28;20310;-73
2022/06/06 03:57:50;;;;;;;41.47;22.25;;;15.20;99.90;;;;;;5010590;28;20044;-73
2022/06/06 04:00:15;;;;;;;40.65;22.52;;;15.10;99.90;;;;;;5010443;28;20022;-73
2022/06/06 04:02:43;;;;;;;38.25;20.95;;;15.30;99.90;;;;;;5010240;28;20084;-73
2022/06/06 04:05:15;;;;;;;39.85;23.20;;;15.30;99.90;;;;;;5010273;28;20125;-73
2022/06/06 04:07:41;;;;;;;39.97;22.10;;;15.20;99.90;;;;;;5010619;28;20501;-73
2022/06/06 04:10:08;;;;;;;33.63;21.00;;;15.30;99.90;;;;;;5009983;28;20148;-73
2022/06/06 04:12:39;;;;;;;38.53;23.90;;;15.30;99.90;;;;;;5010523;28;20038;-73
2022/06/06 04:15:20;;;;;;;39.28;22.17;;;15.30;99.90;;;;;;5009953;28;20096;-73
2022/06/06 04:18:07;;;;;;;39.30;23.92;;;15.20;99.90;;;;;;5008562;28;20118;-73
2022/06/06 04:20:53;;;;;;;45.95;26.15;;;15.20;99.90;;;;;;5010368;28;20119;-73
2022/06/06 04:23:46;;;;;;;53.38;28.60;;;15.20;99.90;;;;;;5016335;28;20029;-73
2022/06/06 04:26:27;;;;;;;49.35;29.80;;;15.30;99.90;;;;;;5029642;28;20053;-73
2022/06/06 04:29:10;;;;;;;52.53;32.28;;;15.30;99.90;;;;;;5029496;28;20499;-73
2022/06/06 04:31:49;;;;;;;58.42;34.85;;;15.30;99.90;;;;;;5029321;28;20063;-72
2022/06/06 04:34:36;;;;;;;75.90;42.13;;;15.20;99.90;;;;;;5024129;28;20037;-73
2022/06/06 04:37:16;;;;;;;63.53;37.63;;;15.10;99.90;;;;;;5028562;28;20057;-73
2022/06/06 04:39:59;;;;;;;65.95;38.22;;;15.20;99.90;;;;;;5023070;28;20048;-73
2022/06/06 04:42:43;;;;;;;61.97;35.00;;;14.90;99.90;;;;;;5029345;28;20121;-73
2022/06/06 04:45:52;;;;;;;63.50;34.77;;;15.10;99.90;;;;;;5028542;28;20489;-73
2022/06/06 04:48:20;;;;;;;50.22;32.10;;;15.00;99.90;;;;;;5004911;28;20679;-73
2022/06/06 04:50:47;;;;;;;46.63;28.90;;;15.20;99.90;;;;;;5006954;28;20110;-73
2022/06/06 04:53:17;;;;;;;47.10;29.77;;;15.20;99.90;;;;;;5005982;28;20022;-73
2022/06/06 04:55:46;;;;;;;52.85;33.28;;;15.00;99.90;;;;;;5006680;28;20512;-73
2022/06/06 04:58:13;;;;;;;47.72;32.15;;;16.10;99.90;;;;;;5006585;28;20048;-73
2022/06/06 05:00:40;;;;;;;50.97;30.67;;;15.20;99.90;;;;;;5006926;28;20488;-73
2022/06/06 05:03:06;;;;;;;41.45;28.20;;;15.20;99.90;;;;;;5006693;28;20172;-73
2022/06/06 05:05:43;;;;;;;53.35;32.47;;;15.20;99.90;;;;;;5007328;28;20168;-73
2022/06/06 05:08:43;;;;;;;46.13;30.00;;;15.20;99.90;;;;;;5006888;28;20395;-73
2022/06/06 05:11:36;;;;;;;51.50;32.72;;;15.20;99.90;;;;;;5006796;28;20029;-73
2022/06/06 05:14:10;;;;;;;47.92;32.75;;;15.20;99.90;;;;;;5006238;28;20036;-73
2022/06/06 05:17:08;;;;;;;50.17;34.50;;;15.20;99.90;;;;;;5006968;28;20022;-73
2022/06/06 05:19:49;;;;;;;43.83;30.42;;;15.10;99.90;;;;;;5022860;28;20049;-73
2022/06/06 05:22:32;;;;;;;45.95;33.17;;;14.90;99.90;;;;;;5028611;28;20391;-73
2022/06/06 05:25:17;;;;;;;44.73;30.43;;;15.30;99.90;;;;;;5014497;28;20028;-73
2022/06/06 05:28:01;;;;;;;42.88;29.55;;;15.00;99.90;;;;;;5013780;28;20379;-74
2022/06/06 05:30:58;;;;;;;38.15;28.80;;;15.20;99.90;;;;;;5009445;28;20096;-73
2022/06/06 05:33:41;;;;;;;37.30;27.10;;;15.30;99.90;;;;;;5009282;28;20030;-73
2022/06/06 05:36:13;;;;;;;39.97;29.27;;;15.10;99.90;;;;;;5008976;28;20018;-73
2022/06/06 05:39:03;;;;;;;37.30;28.23;;;15.20;99.90;;;;;;5009308;28;20065;-73
2022/06/06 05:41:39;;;;;;;32.70;23.38;;;15.20;99.90;;;;;;5007909;28;20383;-73
2022/06/06 05:44:27;;;;;;;35.05;25.75;;;15.30;99.90;;;;;;5008381;28;20471;-73
2022/06/06 05:47:08;;;;;;;30.70;23.25;;;15.30;99.90;;;;;;5009053;28;20390;-73
2022/06/06 05:49:58;;;;;;;27.80;21.75;;;15.60;99.90;;;;;;5009448;28;20026;-73
2022/06/06 05:52:55;;;;;;;23.27;19.42;;;15.30;99.90;;;;;;5009830;28;20033;-73
2022/06/06 05:55:41;;;;;;;24.70;18.60;;;15.50;99.90;;;;;;5029099;28;20458;-73
2022/06/06 05:58:29;;;;;;;21.83;19.27;;;15.40;99.90;;;;;;5027805;28;20095;-73
2022/06/06 06:01:32;;;;;;;19.92;16.23;;;15.40;99.90;;;;;;5028650;28;20029;-73
2022/06/06 06:04:16;;;;;;;18.98;15.60;;;15.40;99.90;;;;;;5025900;28;20160;-73
2022/06/06 06:06:57;;;;;;;19.02;15.60;;;15.40;99.90;;;;;;5028277;28;20382;-73
2022/06/06 06:09:38;;;;;;;18.63;15.13;;;15.40;99.90;;;;;;5023065;28;20029;-73
2022/06/06 06:12:41;;;;;;;21.60;15.15;;;15.20;99.90;;;;;;5027697;28;20029;-73
2022/06/06 06:15:22;;;;;;;18.77;14.55;;;15.60;99.90;;;;;;5028497;28;20124;-73
2022/06/06 06:17:51;;;;;;;13.68;11.68;;;16.60;99.90;;;;;;5028904;28;20034;-73
2022/06/06 06:20:20;;;;;;;17.88;15.02;;;16.50;99.90;;;;;;5028818;28;20030;-73
2022/06/06 06:23:00;;;;;;;20.00;15.73;;;16.60;99.90;;;;;;5026896;28;20026;-73
2022/06/06 06:25:26;;;;;;;17.27;13.18;;;15.60;99.90;;;;;;5028871;28;20497;-73
2022/06/06 06:27:58;;;;;;;16.88;15.05;;;16.00;99.90;;;;;;5028295;28;20071;-73
2022/06/06 06:30:28;;;;;;;17.05;13.40;;;15.80;99.90;;;;;;5029107;28;20104;-74
2022/06/06 06:33:03;;;;;;;16.25;13.50;;;15.60;99.90;;;;;;5028707;28;20026;-73
2022/06/06 06:35:47;;;;;;;17.88;14.15;;;15.90;99.90;;;;;;5029037;28;20088;-74
2022/06/06 06:38:34;;;;;;;16.50;14.75;;;15.70;99.90;;;;;;5031686;28;20029;-74
2022/06/06 06:41:11;;;;;;;19.38;14.95;;;15.90;99.90;;;;;;5031592;28;20044;-73
2022/06/06 06:43:49;;;;;;;17.48;15.48;;;15.90;99.90;;;;;;5032565;28;20103;-73
2022/06/06 06:46:20;;;;;;;16.23;14.52;;;16.00;99.90;;;;;;5032038;28;20021;-73
2022/06/06 06:48:51;;;;;;;16.42;13.43;;;16.10;99.90;;;;;;5032393;28;20386;-74
2022/06/06 06:51:53;;;;;;;14.75;13.27;;;16.10;99.90;;;;;;5032264;28;20013;-73
2022/06/06 06:54:45;;;;;;;12.77;11.50;;;16.10;99.90;;;;;;5012106;28;20123;-74
2022/06/06 06:57:31;;;;;;;13.05;11.63;;;16.20;99.90;;;;;;5011947;28;20030;-73
2022/06/06 07:00:03;;;;;;;14.55;12.23;;;16.10;99.90;;;;;;5010803;28;20135;-72
2022/06/06 07:08:34;;;;;;;18.52;12.70;;;16.70;99.90;;;;;;5012031;28;20503;-72
2022/06/06 07:11:09;;;;;;;13.15;11.45;;;16.20;99.90;;;;;;5011205;28;20034;-72
2022/06/06 07:13:43;;;;;;;12.98;11.57;;;16.20;99.90;;;;;;5012317;28;20022;-72
2022/06/06 07:16:29;;;;;;;14.45;13.07;;;16.30;99.90;;;;;;5011784;28;20113;-72
2022/06/06 07:19:12;;;;;;;14.90;12.85;;;16.30;99.90;;;;;;5011915;28;20044;-73
2022/06/06 07:21:39;;;;;;;14.27;12.98;;;16.30;99.90;;;;;;5012090;28;20096;-72
2022/06/06 07:24:10;;;;;;;14.73;13.18;;;16.60;99.90;;;;;;5029912;28;20040;-72
2022/06/06 07:26:39;;;;;;;12.98;11.65;;;16.60;99.90;;;;;;5030208;28;20040;-68
2022/06/06 07:29:11;;;;;;;13.30;12.00;;;16.60;99.90;;;;;;5029453;28;20033;-69
2022/06/06 07:32:01;;;;;;;12.15;11.05;;;16.70;99.90;;;;;;5029922;28;20042;-69
2022/06/06 07:34:49;;;;;;;10.18;9.10;;;16.70;99.90;;;;;;5030723;28;20110;-71
2022/06/06 07:37:32;;;;;;;11.13;9.95;;;16.90;99.90;;;;;;5030166;28;20025;-71
2022/06/06 07:40:12;;;;;;;10.35;8.32;;;19.80;99.90;;;;;;5029947;28;20116;-71
2022/06/06 07:43:00;;;;;;;7.57;6.85;;;17.10;99.90;;;;;;5024369;28;20041;-72
2022/06/06 07:45:35;;;;;;;7.15;6.45;;;17.00;99.90;;;;;;5029426;28;20021;-71
2022/06/06 07:48:40;;;;;;;7.18;6.13;;;17.10;99.90;;;;;;5029431;28;20032;-71
2022/06/06 07:51:20;;;;;;;5.72;5.20;;;17.10;99.90;;;;;;5028835;28;20116;-71
2022/06/06 07:54:10;;;;;;;6.05;5.45;;;17.40;99.90;;;;;;5010716;28;20101;-71
2022/06/06 07:57:13;;;;;;;6.32;5.63;;;17.10;99.90;;;;;;5010621;28;20030;-71
2022/06/06 07:59:45;;;;;;;5.72;4.47;;;17.10;99.90;;;;;;5010624;28;20041;-71
2022/06/06 08:02:28;;;;;;;6.37;4.10;;;17.20;99.90;;;;;;5014842;28;20412;-71
2022/06/06 08:05:20;;;;;;;5.35;3.03;;;17.30;99.90;;;;;;5029477;28;20288;-71
2022/06/06 08:08:01;;;;;;;3.83;2.67;;;17.30;99.90;;;;;;5026065;28;20029;-71
2022/06/06 08:10:40;;;;;;;6.80;3.60;;;17.60;99.90;;;;;;5030058;28;20020;-71
2022/06/06 08:13:31;;;;;;;3.05;2.13;;;17.70;99.90;;;;;;5029074;28;20109;-71
2022/06/06 08:16:13;;;;;;;3.22;1.75;;;18.00;99.90;;;;;;5029460;28;20390;-71
2022/06/06 08:18:50;;;;;;;5.28;1.60;;;18.20;99.90;;;;;;5029814;28;20399;-71
2022/06/06 08:21:34;;;;;;;5.00;2.28;;;18.40;99.90;;;;;;5029193;28;20498;-71
2022/06/06 08:24:03;;;;;;;4.32;2.70;;;18.10;99.90;;;;;;5027180;28;20048;-71
2022/06/06 08:26:34;;;;;;;2.45;2.25;;;18.00;99.90;;;;;;5029368;28;20455;-71
2022/06/06 08:29:01;;;;;;;4.18;3.00;;;17.90;99.90;;;;;;5024689;28;20025;-71
2022/06/06 08:31:26;;;;;;;3.22;2.92;;;17.80;99.90;;;;;;5029576;28;20071;-71
2022/06/06 08:33:52;;;;;;;3.33;3.03;;;17.90;99.90;;;;;;5029765;28;20033;-71
2022/06/06 08:36:36;;;;;;;7.38;3.60;;;17.60;99.90;;;;;;5025286;28;20034;-71
2022/06/06 08:39:22;;;;;;;6.47;3.13;;;17.40;99.90;;;;;;5016379;28;20545;-71
2022/06/06 08:41:57;;;;;;;3.88;3.58;;;17.30;99.90;;;;;;5012254;28;20018;-72
2022/06/06 08:44:35;;;;;;;4.28;2.78;;;17.20;99.90;;;;;;5029622;28;20497;-71
2022/06/06 08:47:13;;;;;;;3.72;3.30;;;17.00;99.90;;;;;;5029144;28;20021;-71
2022/06/06 08:53:00;;;;;;;6.85;2.67;;;17.00;99.90;;;;;;5029113;28;20138;-71
2022/06/06 08:55:53;;;;;;;3.78;2.72;;;17.10;99.90;;;;;;5029567;28;20021;-71
2022/06/06 08:58:42;;;;;;;5.60;2.22;;;17.40;99.90;;;;;;5029186;28;20111;-71
2022/06/06 09:01:46;;;;;;;2.63;1.90;;;17.70;99.90;;;;;;5028595;28;20029;-71
2022/06/06 09:04:59;;;;;;;4.13;1.70;;;18.20;99.90;;;;;;4987356;28;20038;-71
2022/06/06 09:07:51;;;;;;;2.75;1.63;;;18.00;99.90;;;;;;4987270;28;20132;-71
2022/06/06 09:10:39;;;;;;;3.88;1.60;;;18.30;99.90;;;;;;4987634;28;20073;-71
2022/06/06 09:13:18;;;;;;;6.80;1.80;;;18.50;99.90;;;;;;4987115;28;20058;-71
2022/06/06 09:16:44;;;;;;;1.35;1.25;;;18.60;99.90;;;;;;4987734;28;20474;-71
2022/06/06 09:19:25;;;;;;;2.15;1.20;;;18.70;99.90;;;;;;4927789;29;20172;-71
2022/06/06 09:22:16;;;;;;;2.70;1.25;;;18.80;99.20;;;;;;4928366;29;20126;-71
2022/06/06 09:24:50;;;;;;;10.55;1.50;;;18.80;99.30;;;;;;4929435;29;20079;-71
2022/06/06 09:27:40;;;;;;;3.85;1.25;;;18.70;99.70;;;;;;4929579;29;20102;-71
2022/06/06 09:30:32;;;;;;;3.60;1.13;;;18.50;99.10;;;;;;4929479;29;20055;-71
2022/06/06 09:33:34;;;;;;;3.90;1.10;;;18.50;99.00;;;;;;4948592;29;20032;-70
2022/06/06 09:36:23;;;;;;;4.60;1.52;;;18.30;98.90;;;;;;4926502;29;20036;-71
2022/06/06 09:39:07;;;;;;;4.45;1.55;;;18.30;99.10;;;;;;4929127;29;20043;-71
2022/06/06 09:42:00;;;;;;;2.15;1.65;;;18.40;99.80;;;;;;4956882;28;20026;-70
2022/06/06 09:44:40;;;;;;;6.10;1.75;;;18.30;99.10;;;;;;4951781;28;20045;-71
2022/06/06 09:47:27;;;;;;;2.80;1.70;;;18.30;99.20;;;;;;4964751;28;20042;-71
2022/06/06 09:50:04;;;;;;;5.43;2.47;;;18.30;99.30;;;;;;4967337;28;20062;-70
2022/06/06 09:53:13;;;;;;;4.90;2.38;;;18.30;99.20;;;;;;4990456;28;20080;-71
2022/06/06 09:59:01;;;;;;;2.30;2.20;;;18.20;98.60;;;;;;5028715;28;20524;-70
2022/06/06 10:02:20;;;;;;;4.43;2.58;;;18.20;99.00;;;;;;5009238;28;20083;-71
2022/06/06 10:05:16;;;;;;;3.42;2.10;;;18.60;99.10;;;;;;5025599;28;20097;-71
2022/06/06 10:08:10;;;;;;;2.90;2.67;;;19.00;98.70;;;;;;5026536;28;20034;-71
2022/06/06 10:11:13;;;;;;;4.15;2.03;;;19.30;98.00;;;;;;5029618;28;20441;-71
2022/06/06 10:13:58;;;;;;;2.38;2.00;;;19.50;97.70;;;;;;5030379;28;20029;-71
2022/06/06 10:16:51;;;;;;;3.15;2.13;;;20.60;98.60;;;;;;5030123;28;20395;-71
2022/06/06 10:19:34;;;;;;;6.35;2.13;;;19.60;97.20;;;;;;5043293;28;20041;-70
2022/06/06 10:22:23;;;;;;;3.75;2.03;;;19.50;97.00;;;;;;5049126;28;20440;-69
2022/06/06 10:25:06;;;;;;;3.45;2.40;;;19.40;96.80;;;;;;5049357;28;20053;-70
2022/06/06 10:28:02;;;;;;;2.67;2.40;;;19.30;98.10;;;;;;5045532;28;20107;-70
2022/06/06 10:30:55;;;;;;;3.97;2.15;;;19.30;97.30;;;;;;5029840;28;20090;-70
2022/06/06 10:33:30;;;;;;;4.15;1.85;;;19.40;97.20;;;;;;5048585;28;20128;-70
2022/06/06 10:36:17;;;;;;;2.65;1.95;;;19.30;97.20;;;;;;5034512;28;20099;-70
2022/06/06 10:39:04;;;;;;;4.38;2.28;;;19.20;97.10;;;;;;5023158;28;20116;-70
2022/06/06 10:41:52;;;;;;;5.45;2.03;;;19.00;97.40;;;;;;5031164;28;20104;-70
2022/06/06 10:44:39;;;;;;;4.75;2.38;;;18.90;97.30;;;;;;5041381;28;20363;-70
2022/06/06 10:47:26;;;;;;;3.28;3.05;;;18.90;97.40;;;;;;5029185;28;20171;-70
2022/06/06 10:50:01;;;;;;;2.38;2.20;;;19.10;97.10;;;;;;5027070;28;20074;-70
2022/06/06 10:52:48;;;;;;;5.85;2.55;;;19.60;97.80;;;;;;5018454;28;20638;-70
2022/06/06 10:55:49;;;;;;;2.47;2.25;;;19.40;96.70;;;;;;5014454;28;20064;-70
2022/06/06 10:58:30;;;;;;;5.35;2.38;;;19.80;97.20;;;;;;4989525;28;20038;-70
2022/06/06 11:01:32;;;;;;;6.55;2.05;;;19.60;96.30;;;;;;4989497;28;20492;-70
2022/06/06 11:04:25;;;;;;;2.60;2.40;;;19.40;96.40;;;;;;4989646;28;20467;-70
2022/06/06 11:07:19;;;;;;;3.60;3.30;;;19.20;96.80;;;;;;4989647;28;20046;-70
2022/06/06 11:10:01;;;;;;;4.73;2.70;;;19.10;98.00;;;;;;4989890;28;20270;-70
2022/06/06 11:13:05;;;;;;;3.20;2.90;;;19.10;97.30;;;;;;4989854;28;20459;-71
2022/06/06 11:15:50;;;;;;;3.40;2.88;;;19.10;97.50;;;;;;4988087;28;20019;-70
2022/06/06 11:18:45;;;;;;;6.10;3.03;;;19.10;98.20;;;;;;4969169;28;20319;-70
2022/06/06 11:21:32;;;;;;;3.40;2.78;;;19.00;97.60;;;;;;4987827;28;20488;-70
2022/06/06 11:24:00;;;;;;;2.72;2.53;;;19.00;97.90;;;;;;4987827;28;20030;-71
2022/06/06 11:26:32;;;;;;;3.85;3.00;;;18.90;98.50;;;;;;4988508;28;20114;-70
2022/06/06 11:29:25;;;;;;;3.15;2.28;;;19.10;97.30;;;;;;4989288;28;20069;-70
2022/06/06 11:32:02;;;;;;;4.00;2.30;;;19.40;97.60;;;;;;5002436;28;20128;-70
2022/06/06 11:34:42;;;;;;;2.88;1.88;;;19.80;97.80;;;;;;5030659;28;20375;-70
2022/06/06 11:37:26;;;;;;;2.03;1.83;;;20.00;97.20;;;;;;5029825;28;20028;-70
2022/06/06 11:40:29;;;;;;;3.58;2.13;;;20.20;96.00;;;;;;5021691;28;20040;-70
2022/06/06 11:43:13;;;;;;;2.20;1.45;;;20.30;95.60;;;;;;5010785;28;20026;-70
2022/06/06 11:46:15;;;;;;;2.85;1.63;;;19.60;96.00;;;;;;5010393;28;20029;-71
2022/06/06 11:48:59;;;;;;;2.05;1.70;;;20.60;95.20;;;;;;5015179;28;20037;-70
2022/06/06 11:51:46;;;;;;;1.42;1.27;;;21.30;95.90;;;;;;5030522;28;20021;-70
2022/06/06 11:54:59;;;;;;;3.58;2.03;;;20.90;94.70;;;;;;5029972;28;20100;-70
2022/06/06 11:57:51;;;;;;;1.77;1.33;;;21.00;94.40;;;;;;5027492;28;20095;-70
2022/06/06 12:00:38;;;;;;;3.28;1.35;;;20.90;95.30;;;;;;5028816;28;20026;-70
2022/06/06 12:03:28;;;;;;;4.35;2.10;;;20.60;94.60;;;;;;5044775;28;20044;-70
2022/06/06 12:06:18;;;;;;;2.70;1.52;;;20.30;94.70;;;;;;5030303;28;20115;-71
2022/06/06 12:09:03;;;;;;;3.70;1.30;;;20.10;95.40;;;;;;5045731;28;20060;-70
2022/06/06 12:12:14;;;;;;;2.60;1.15;;;20.00;96.50;;;;;;5024013;28;20018;-70
2022/06/06 12:15:01;;;;;;;3.33;1.50;;;19.50;96.10;;;;;;5009901;28;20072;-70
2022/06/06 12:17:33;;;;;;;3.45;1.58;;;19.20;96.60;;;;;;5010210;28;20355;-70
2022/06/06 12:20:30;;;;;;;4.35;1.58;;;19.30;97.00;;;;;;5010066;28;20044;-70
2022/06/06 12:23:32;;;;;;;5.18;1.73;;;19.50;96.40;;;;;;5010073;28;20032;-70
2022/06/06 12:26:28;;;;;;;4.28;1.75;;;19.80;96.00;;;;;;5009921;28;20025;-70
2022/06/06 12:29:21;;;;;;;2.17;1.52;;;19.80;96.00;;;;;;5009631;28;20025;-70
2022/06/06 12:32:01;;;;;;;1.63;1.52;;;19.50;96.20;;;;;;5009985;28;20534;-70
2022/06/06 12:35:09;;;;;;;4.40;1.95;;;19.00;96.40;;;;;;5009246;28;20084;-70
2022/06/06 12:37:55;;;;;;;4.95;2.13;;;18.80;97.00;;;;;;5007415;28;20069;-70
2022/06/06 12:40:29;;;;;;;2.13;2.00;;;18.40;97.70;;;;;;5013122;28;20402;-69
2022/06/06 12:43:07;;;;;;;4.78;2.30;;;18.30;98.90;;;;;;5019599;28;20022;-69
2022/06/06 12:45:41;;;;;;;2.55;1.85;;;17.90;99.80;;;;;;5010017;28;20030;-70
2022/06/06 12:48:25;;;;;;;1.70;1.50;;;17.80;99.70;;;;;;5009271;28;20061;-69
2022/06/06 12:51:18;;;;;;;2.05;1.70;;;17.30;99.90;;;;;;5021623;28;20061;-69
2022/06/06 12:54:08;;;;;;;2.88;2.10;;;17.60;99.90;;;;;;5009969;28;20110;-69
2022/06/06 12:56:53;;;;;;;3.83;2.25;;;17.70;99.90;;;;;;5022973;28;20065;-69
2022/06/06 12:59:37;;;;;;;2.42;2.10;;;17.80;99.90;;;;;;5028442;28;20466;-69
2022/06/06 13:02:31;;;;;;;3.28;1.77;;;18.10;99.90;;;;;;5028703;28;20025;-69
2022/06/06 13:05:21;;;;;;;2.97;2.00;;;18.20;99.90;;;;;;5029041;28;20046;-69
2022/06/06 13:07:59;;;;;;;2.63;2.05;;;18.50;99.90;;;;;;5023491;28;20029;-69
2022/06/06 13:10:52;;;;;;;2.70;2.08;;;18.90;99.90;;;;;;5009614;28;20555;-69
2022/06/06 13:13:31;;;;;;;2.30;1.77;;;19.20;99.90;;;;;;5008775;28;20029;-69
2022/06/06 13:16:30;;;;;;;2.63;1.95;;;18.80;99.90;;;;;;5009122;28;20022;-69
2022/06/06 13:18:55;;;;;;;4.32;1.60;;;18.70;99.70;;;;;;5009181;28;20045;-69
2022/06/06 13:21:48;;;;;;;2.35;1.55;;;18.60;99.90;;;;;;5009117;28;20022;-69
2022/06/06 13:24:35;;;;;;;1.77;1.67;;;18.50;99.80;;;;;;5008655;28;20025;-69
2022/06/06 13:27:15;;;;;;;2.45;1.13;;;18.50;99.70;;;;;;5026936;28;20479;-69
2022/06/06 13:29:41;;;;;;;3.97;1.98;;;19.50;99.90;;;;;;5027499;28;20030;-69
2022/06/06 13:32:38;;;;;;;3.88;1.40;;;19.90;99.80;;;;;;5025844;28;20022;-69
2022/06/06 13:35:04;;;;;;;1.63;1.33;;;19.10;98.80;;;;;;5027810;28;20021;-69
2022/06/06 13:37:46;;;;;;;1.73;1.05;;;19.20;99.00;;;;;;5028270;28;20025;-69
2022/06/06 13:40:30;;;;;;;1.10;1.02;;;19.30;98.50;;;;;;5028072;28;20040;-67
2022/06/06 13:43:01;;;;;;;;;;;19.40;98.40;;;;;;5027542;28;20364;-69
2022/06/06 13:45:33;;;;;;;6.65;1.15;;;20.70;99.50;;;;;;5028761;28;19942;-69
2022/06/06 13:48:22;;;;;;;1.20;1.00;;;19.90;99.10;;;;;;5032152;28;20064;-69
2022/06/06 13:51:01;;;;;;;2.05;0.88;;;19.20;98.30;;;;;;5030376;28;20040;-69
2022/06/06 13:53:45;;;;;;;3.53;1.33;;;19.10;98.40;;;;;;5032871;28;20388;-69
2022/06/06 13:56:38;;;;;;;2.25;1.42;;;19.20;99.20;;;;;;5032077;28;20061;-69
2022/06/06 13:59:41;;;;;;;1.45;1.05;;;19.10;98.20;;;;;;5032194;28;20041;-69
2022/06/06 14:02:17;;;;;;;2.13;1.80;;;19.10;98.40;;;;;;5031225;28;20040;-69
2022/06/06 14:05:00;;;;;;;4.55;1.20;;;18.90;99.90;;;;;;5026375;28;20510;-69
2022/06/06 14:07:40;;;;;;;3.10;1.10;;;18.90;98.40;;;;;;5029793;28;20025;-69
2022/06/06 14:10:11;;;;;;;3.50;1.45;;;18.90;98.40;;;;;;5030930;28;20032;-69